Time;durP1;ratioP1;P1;durP2;ratioP2;P2;SDS_P1;SDS_P2;PMS_P1;PMS_P2;Temp;Humidity;BMP_temperature;BMP_pressure;BME280_temperature;BME280_humidity;BME280_pressure;Samples;Min_cycle;Max_cycle;Signal;HPM_P1;HPM_P2
2022/07/02 00:00:22;;;;;;;11.57;10.58;;;;;;;20.38;70.95;97517.16;1517177;93;25859;-85
2022/07/02 00:02:52;;;;;;;10.53;9.63;;;;;;;20.32;71.19;97516.81;1537625;92;25957;-84
2022/07/02 00:05:22;;;;;;;10.63;9.73;;;;;;;20.27;71.12;97525.59;1544378;91;25868;-81
2022/07/02 00:07:50;;;;;;;10.18;9.10;;;;;;;20.25;70.90;97523.66;1579789;87;25992;-84
2022/07/02 00:10:19;;;;;;;10.78;9.80;;;;;;;20.27;70.98;97523.67;1618252;88;27519;-82
2022/07/02 00:12:47;;;;;;;10.45;9.55;;;;;;;20.26;70.91;97521.20;1651387;83;25799;-83
2022/07/02 00:15:15;;;;;;;10.65;9.75;;;;;;;20.25;70.96;97525.86;1732421;82;26326;-85
2022/07/02 00:17:41;;;;;;;11.65;10.65;;;;;;;20.21;71.10;97526.11;1734469;80;25721;-86
2022/07/02 00:20:09;;;;;;;12.35;11.18;;;;;;;20.01;71.31;97524.69;1697853;83;25256;-84
2022/07/02 00:22:36;;;;;;;12.78;11.57;;;;;;;19.97;71.47;97531.78;1739875;82;27399;-83
2022/07/02 00:25:03;;;;;;;14.15;12.53;;;;;;;19.90;71.83;97519.72;1715980;82;25885;-87
2022/07/02 00:27:31;;;;;;;12.35;11.10;;;;;;;19.81;72.14;97520.48;1704083;83;25724;-83
2022/07/02 00:30:04;;;;;;;13.05;11.85;;;;;;;19.74;71.91;97511.98;1698110;81;26581;-82
2022/07/02 00:32:34;;;;;;;12.68;11.48;;;;;;;19.74;72.02;97511.98;1706875;82;25779;-82
2022/07/02 00:35:08;;;;;;;13.05;11.85;;;;;;;19.73;72.06;97504.02;1697737;82;27469;-82
2022/07/02 00:37:37;;;;;;;13.15;11.83;;;;;;;19.74;72.11;97498.28;1698330;82;25821;-83
2022/07/02 00:40:07;;;;;;;12.18;11.08;;;;;;;19.76;72.10;97496.11;1693325;83;25752;-82
2022/07/02 00:42:36;;;;;;;12.82;11.57;;;;;;;19.83;72.14;97499.13;1703734;82;25800;-81
2022/07/02 00:45:04;;;;;;;11.70;10.50;;;;;;;19.89;72.02;97496.16;1702795;83;25892;-83
2022/07/02 00:47:31;;;;;;;12.23;11.20;;;;;;;19.91;71.90;97498.09;1684713;82;28375;-83
2022/07/02 00:49:57;;;;;;;13.20;11.90;;;;;;;19.85;72.06;97499.69;1768461;79;25887;-82
2022/07/02 00:52:24;;;;;;;13.38;12.18;;;;;;;19.75;72.02;97508.70;1760963;79;25905;-83
2022/07/02 00:54:50;;;;;;;14.20;12.82;;;;;;;19.73;72.04;97510.33;1754431;80;26509;-84
2022/07/02 00:57:18;;;;;;;14.73;12.65;;;;;;;19.72;72.07;97505.11;1731239;80;25864;-84
2022/07/02 00:59:45;;;;;;;13.50;12.25;;;;;;;19.72;71.91;97504.56;1758167;79;27504;-83
2022/07/02 01:02:11;;;;;;;13.25;12.00;;;;;;;19.72;71.81;97509.22;1752501;79;25626;-80
2022/07/02 01:04:41;;;;;;;12.78;11.65;;;;;;;19.74;71.84;97502.39;1737676;79;25283;-83
2022/07/02 01:07:12;;;;;;;13.00;11.78;;;;;;;19.77;71.74;97499.13;1737621;80;25844;-84
2022/07/02 01:12:28;;;;;;;13.88;12.20;;;;;;;19.85;71.61;97486.81;1742093;79;27494;-84
2022/07/02 01:14:57;;;;;;;13.53;12.23;;;;;;;19.84;71.61;97476.13;1761793;80;25991;-84
2022/07/02 01:17:24;;;;;;;13.88;12.40;;;;;;;19.82;71.61;97468.72;1748145;79;25800;-84
2022/07/02 01:19:51;;;;;;;14.43;12.37;;;;;;;19.84;71.61;97466.54;1737623;79;25882;-83
2022/07/02 01:22:24;;;;;;;13.08;11.65;;;;;;;19.85;71.53;97458.59;1731375;80;26398;-83
2022/07/02 01:24:54;;;;;;;13.58;12.28;;;;;;;19.86;71.44;97461.08;1746791;79;28242;-83
2022/07/02 01:27:22;;;;;;;14.10;12.70;;;;;;;19.87;71.29;97448.20;1737509;80;25945;-87
2022/07/02 01:29:49;;;;;;;13.72;12.18;;;;;;;19.88;71.19;97443.00;1763895;80;26034;-83
2022/07/02 01:32:16;;;;;;;12.82;11.53;;;;;;;19.90;71.09;97440.83;1763758;79;26384;-85
2022/07/02 01:34:50;;;;;;;13.40;12.20;;;;;;;19.91;71.04;97434.25;1738935;80;25737;-83
2022/07/02 01:37:20;;;;;;;13.68;12.37;;;;;;;19.90;70.98;97427.13;1744218;80;28071;-86
2022/07/02 01:39:48;;;;;;;13.13;11.83;;;;;;;19.88;70.89;97439.72;1770031;80;25781;-84
2022/07/02 01:42:16;;;;;;;12.93;11.63;;;;;;;19.86;70.92;97449.30;1771863;80;25682;-83
2022/07/02 01:44:45;;;;;;;13.25;12.05;;;;;;;19.84;70.98;97450.92;1774608;80;26509;-83
2022/07/02 01:47:13;;;;;;;12.28;11.20;;;;;;;19.85;71.07;97459.97;1769682;80;25760;-84
2022/07/02 01:49:40;;;;;;;12.68;11.38;;;;;;;19.84;71.13;97459.69;1779364;80;28214;-86
2022/07/02 01:52:08;;;;;;;12.55;11.20;;;;;;;19.87;71.10;97457.79;1776755;80;25853;-82
2022/07/02 01:54:35;;;;;;;12.53;11.35;;;;;;;19.91;71.06;97456.17;1778290;80;25367;-83
2022/07/02 01:57:03;;;;;;;13.18;12.03;;;;;;;19.94;70.94;97456.98;1773844;80;25722;-86
2022/07/02 01:59:29;;;;;;;13.53;12.25;;;;;;;19.93;71.02;97464.91;1776221;80;26090;-84
2022/07/02 02:01:56;;;;;;;14.05;11.55;;;;;;;19.88;71.11;97463.55;1773677;80;28078;-83
2022/07/02 02:04:23;;;;;;;12.93;11.63;;;;;;;19.86;71.17;97462.98;1770779;80;25860;-83
2022/07/02 02:06:49;;;;;;;12.23;11.12;;;;;;;19.78;71.24;97455.58;1768224;80;25714;-83
2022/07/02 02:09:16;;;;;;;17.80;12.40;;;;;;;19.81;71.31;97461.59;1778938;80;26745;-84
2022/07/02 02:11:43;;;;;;;14.68;12.43;;;;;;;19.81;71.36;97456.11;1781832;80;25707;-85
2022/07/02 02:14:09;;;;;;;12.80;11.50;;;;;;;19.87;71.29;97471.48;1780865;80;27561;-85
2022/07/02 02:16:36;;;;;;;12.35;11.15;;;;;;;19.89;71.25;97474.24;1777246;80;25719;-85
2022/07/02 02:19:03;;;;;;;12.82;11.53;;;;;;;19.91;71.27;97482.19;1776934;80;25808;-85
2022/07/02 02:21:30;;;;;;;13.38;12.13;;;;;;;19.90;71.28;97476.44;1777657;80;26408;-83
2022/07/02 02:23:58;;;;;;;13.53;12.33;;;;;;;19.84;71.31;97476.95;1771204;80;25736;-81
2022/07/02 02:26:26;;;;;;;12.63;11.53;;;;;;;19.84;71.36;97485.71;1777702;80;27419;-84
2022/07/02 02:28:53;;;;;;;13.50;12.03;;;;;;;19.86;71.40;97492.58;1762823;80;25802;-87
2022/07/02 02:31:22;;;;;;;12.05;11.05;;;;;;;19.89;71.48;97487.94;1768280;80;25847;-83
2022/07/02 02:33:49;;;;;;;13.22;12.07;;;;;;;19.90;71.55;97487.39;1777923;80;25902;-84
2022/07/02 02:36:16;;;;;;;13.88;12.68;;;;;;;19.91;71.65;97506.85;1780561;80;25756;-82
2022/07/02 02:38:46;;;;;;;13.90;12.60;;;;;;;19.92;71.69;97512.61;1774773;79;27552;-83
2022/07/02 02:41:11;;;;;;;13.60;12.30;;;;;;;19.91;71.63;97522.73;1774413;80;25438;-83
2022/07/02 02:43:38;;;;;;;13.08;11.75;;;;;;;19.92;71.64;97529.05;1776305;80;25834;-86
2022/07/02 02:46:06;;;;;;;13.45;12.20;;;;;;;19.91;71.73;97538.35;1768850;80;25766;-83
2022/07/02 02:48:35;;;;;;;12.80;11.60;;;;;;;19.90;71.75;97547.66;1770922;80;25705;-83
2022/07/02 02:51:03;;;;;;;12.30;11.10;;;;;;;19.88;71.69;97552.03;1777159;80;27463;-83
2022/07/02 02:53:31;;;;;;;13.08;11.78;;;;;;;19.88;71.67;97547.09;1776251;80;25734;-83
2022/07/02 02:55:59;;;;;;;15.85;12.18;;;;;;;19.87;71.66;97539.97;1772260;79;25809;-83
2022/07/02 02:58:26;;;;;;;12.75;11.53;;;;;;;19.83;71.84;97547.06;1776259;79;26608;-86
2022/07/02 03:00:53;;;;;;;13.70;11.95;;;;;;;19.67;71.97;97541.53;1761147;79;25839;-89
2022/07/02 03:03:20;;;;;;;13.93;12.60;;;;;;;19.56;72.30;97536.27;1746146;79;27385;-84
2022/07/02 03:05:46;;;;;;;14.15;12.65;;;;;;;19.47;72.37;97535.89;1744598;80;25739;-85
2022/07/02 03:08:13;;;;;;;13.08;11.88;;;;;;;19.37;72.63;97533.10;1747869;79;26873;-82
2022/07/02 03:10:40;;;;;;;13.40;12.00;;;;;;;19.29;72.68;97544.55;1742082;79;26555;-83
2022/07/02 03:13:06;;;;;;;13.15;11.85;;;;;;;19.29;72.80;97550.03;1754335;80;25720;-84
2022/07/02 03:15:33;;;;;;;12.43;11.33;;;;;;;19.33;72.77;97552.50;1744712;79;28448;-83
2022/07/02 03:17:59;;;;;;;12.80;11.60;;;;;;;19.32;72.94;97542.67;1756728;80;25796;-85
2022/07/02 03:20:26;;;;;;;12.93;11.65;;;;;;;19.27;73.00;97552.20;1761427;80;25714;-83
2022/07/02 03:22:52;;;;;;;11.00;10.00;;;;;;;19.28;72.95;97566.16;1770015;80;26321;-85
2022/07/02 03:25:19;;;;;;;12.28;10.98;;;;;;;19.31;72.82;97572.48;1762882;80;25887;-81
2022/07/02 03:27:46;;;;;;;11.88;10.60;;;;;;;19.29;72.86;97572.75;1737804;80;27393;-79
2022/07/02 03:30:12;;;;;;;12.00;10.60;;;;;;;19.25;72.82;97574.89;1748570;80;25637;-79
2022/07/02 03:32:39;;;;;;;12.07;10.98;;;;;;;19.22;72.90;97590.46;1760573;80;25238;-81
2022/07/02 03:35:06;;;;;;;13.72;12.43;;;;;;;19.18;72.97;97603.03;1747990;80;25939;-80
2022/07/02 03:37:33;;;;;;;14.45;12.95;;;;;;;19.11;73.13;97605.15;1764493;80;25691;-80
2022/07/02 03:39:59;;;;;;;14.15;12.75;;;;;;;19.10;73.21;97611.70;1737877;80;27580;-80
2022/07/02 03:42:26;;;;;;;14.33;12.90;;;;;;;19.05;73.13;97620.17;1760800;80;25736;-80
2022/07/02 03:44:52;;;;;;;14.63;12.90;;;;;;;18.99;73.37;97614.90;1749210;80;25883;-81
2022/07/02 03:47:19;;;;;;;18.25;14.20;;;;;;;18.88;73.35;97620.82;1748082;80;25738;-81
2022/07/02 03:49:45;;;;;;;17.80;13.28;;;;;;;18.86;73.51;97629.83;1743039;80;25667;-81
2022/07/02 03:52:12;;;;;;;16.10;14.50;;;;;;;18.76;73.55;97640.66;1763741;80;27553;-81
2022/07/02 03:54:39;;;;;;;17.57;14.87;;;;;;;18.69;73.85;97635.95;1761730;80;25872;-81
2022/07/02 03:57:06;;;;;;;17.23;15.43;;;;;;;18.49;73.94;97622.02;1759254;80;25742;-81
2022/07/02 03:59:33;;;;;;;18.23;16.23;;;;;;;18.35;74.32;97619.67;1764526;80;26603;-79
2022/07/02 04:01:59;;;;;;;17.65;15.90;;;;;;;18.19;74.45;97621.13;1752981;80;25864;-80
2022/07/02 04:04:26;;;;;;;18.50;16.30;;;;;;;18.09;74.67;97630.03;1761911;80;27454;-81
2022/07/02 04:06:53;;;;;;;18.10;16.27;;;;;;;18.03;74.91;97632.94;1744161;80;25678;-81
2022/07/02 04:09:19;;;;;;;21.42;19.07;;;;;;;18.00;75.24;97627.44;1747792;80;25771;-80
2022/07/02 04:11:46;;;;;;;19.92;18.00;;;;;;;17.95;75.35;97628.75;1763539;80;25853;-81
2022/07/02 04:14:12;;;;;;;20.27;18.17;;;;;;;17.88;75.46;97625.36;1747445;80;25822;-81
2022/07/02 04:16:39;;;;;;;22.50;18.60;;;;;;;17.85;75.47;97631.35;1749079;80;27222;-82
2022/07/02 04:19:05;;;;;;;19.77;17.67;;;;;;;17.87;75.63;97627.84;1755051;80;25712;-82
2022/07/02 04:21:32;;;;;;;20.27;16.80;;;;;;;17.88;75.63;97635.75;1760167;80;25784;-80
2022/07/02 04:23:58;;;;;;;18.32;16.27;;;;;;;17.90;75.46;97647.79;1757806;80;25893;-81
2022/07/02 04:26:25;;;;;;;16.27;14.50;;;;;;;17.88;75.34;97645.84;1744621;80;25708;-80
2022/07/02 04:28:51;;;;;;;17.00;15.20;;;;;;;17.85;75.48;97649.10;1758613;80;27392;-82
2022/07/02 04:31:18;;;;;;;20.20;15.08;;;;;;;17.83;75.49;97652.08;1752755;80;26052;-79
2022/07/02 04:33:45;;;;;;;17.42;15.63;;;;;;;17.84;75.48;97644.72;1759222;80;25835;-82
2022/07/02 04:36:12;;;;;;;17.87;15.63;;;;;;;17.87;75.49;97640.13;1763734;80;25762;-81
2022/07/02 04:38:38;;;;;;;17.42;13.95;;;;;;;17.92;75.48;97642.91;1763660;80;25446;-82
2022/07/02 04:41:05;;;;;;;17.00;14.55;;;;;;;17.94;75.31;97653.05;1743094;80;27502;-81
2022/07/02 04:43:31;;;;;;;17.60;15.55;;;;;;;17.94;75.28;97656.60;1759346;80;25437;-81
2022/07/02 04:45:58;;;;;;;14.47;12.98;;;;;;;17.96;75.19;97653.63;1753071;80;26807;-80
2022/07/02 04:48:25;;;;;;;16.15;13.00;;;;;;;17.95;75.07;97652.80;1765447;81;26354;-81
2022/07/02 04:50:51;;;;;;;14.25;12.53;;;;;;;17.83;75.03;97663.54;1761495;80;25767;-81
2022/07/02 04:53:18;;;;;;;13.85;12.35;;;;;;;17.75;75.13;97655.22;1753966;80;27497;-79
2022/07/02 04:55:44;;;;;;;11.43;10.23;;;;;;;17.70;75.20;97668.81;1766663;80;26307;-82
2022/07/02 04:58:11;;;;;;;15.85;9.83;;;;;;;17.71;75.21;97668.28;1764034;80;25775;-81
2022/07/02 05:00:37;;;;;;;10.98;9.65;;;;;;;17.72;75.16;97676.76;1756735;80;25809;-81
2022/07/02 05:03:04;;;;;;;9.90;8.85;;;;;;;17.75;75.12;97683.89;1745235;80;25712;-81
2022/07/02 05:05:31;;;;;;;9.70;8.60;;;;;;;17.77;75.01;97677.64;1761626;80;27414;-79
2022/07/02 05:07:57;;;;;;;9.03;8.13;;;;;;;17.81;74.99;97676.61;1744696;80;25676;-79
2022/07/02 05:10:24;;;;;;;10.45;8.38;;;;;;;17.79;74.95;97675.49;1742811;80;25746;-81
2022/07/02 05:12:50;;;;;;;10.40;8.03;;;;;;;17.73;75.05;97678.41;1754323;80;26319;-80
2022/07/02 05:15:17;;;;;;;9.23;8.33;;;;;;;17.72;75.16;97678.95;1755560;80;25700;-81
2022/07/02 05:17:44;;;;;;;9.90;8.90;;;;;;;17.75;75.21;97681.16;1756410;80;28345;-82
2022/07/02 05:20:11;;;;;;;10.45;9.20;;;;;;;17.69;75.20;97692.27;1770795;80;25767;-79
2022/07/02 05:22:37;;;;;;;9.63;8.63;;;;;;;17.64;75.30;97695.19;1756904;80;25737;-81
2022/07/02 05:25:04;;;;;;;9.75;8.78;;;;;;;17.60;75.25;97692.66;1747498;80;25712;-81
2022/07/02 05:27:32;;;;;;;10.58;9.55;;;;;;;17.61;75.37;97686.13;1745209;80;26103;-80
2022/07/02 05:29:59;;;;;;;10.15;9.10;;;;;;;17.67;75.44;97687.05;1751209;80;27411;-80
2022/07/02 05:32:25;;;;;;;11.63;9.18;;;;;;;17.72;75.39;97690.41;1750754;80;25737;-80
2022/07/02 05:34:52;;;;;;;9.53;8.63;;;;;;;17.77;75.33;97688.56;1767304;80;26893;-82
2022/07/02 05:37:18;;;;;;;10.03;9.03;;;;;;;17.77;75.33;97687.73;1764787;80;25738;-81
2022/07/02 05:39:45;;;;;;;8.75;7.90;;;;;;;17.72;75.33;97695.87;1761917;80;25633;-80
2022/07/02 05:42:12;;;;;;;9.55;8.13;;;;;;;17.75;75.40;97703.56;1739412;80;27270;-80
2022/07/02 05:44:38;;;;;;;7.78;6.92;;;;;;;17.76;75.46;97715.58;1752855;80;25654;-81
2022/07/02 05:47:05;;;;;;;8.63;6.53;;;;;;;17.80;75.44;97703.62;1737914;80;25825;-79
2022/07/02 05:49:32;;;;;;;8.80;6.78;;;;;;;17.86;75.42;97710.83;1758980;80;25728;-81
2022/07/02 05:51:58;;;;;;;7.78;6.53;;;;;;;17.89;75.31;97713.87;1746558;80;25757;-80
2022/07/02 05:54:25;;;;;;;7.75;6.97;;;;;;;17.93;75.21;97714.20;1754433;80;28141;-80
2022/07/02 05:56:51;;;;;;;9.05;7.12;;;;;;;17.94;75.17;97720.78;1737634;80;25713;-80
2022/07/02 05:59:18;;;;;;;7.40;6.60;;;;;;;17.92;75.13;97723.47;1752644;80;25246;-80
2022/07/02 06:01:44;;;;;;;9.70;7.17;;;;;;;17.95;75.10;97727.90;1763617;80;25650;-81
2022/07/02 06:04:11;;;;;;;13.18;7.12;;;;;;;17.97;75.04;97734.48;1761615;80;26901;-81
2022/07/02 06:09:23;;;;;;;6.50;5.30;;;;;;;17.93;75.01;97730.59;1757995;80;25725;-80
2022/07/02 06:11:49;;;;;;;7.30;5.03;;;;;;;17.90;75.04;97739.27;1750794;80;25909;-79
2022/07/02 06:14:16;;;;;;;5.55;4.97;;;;;;;17.94;75.00;97741.80;1737932;80;26547;-80
2022/07/02 06:16:42;;;;;;;4.85;4.45;;;;;;;17.98;74.91;97748.43;1758292;80;25854;-80
2022/07/02 06:19:09;;;;;;;5.12;4.37;;;;;;;18.03;74.86;97760.78;1759406;80;27638;-80
2022/07/02 06:21:36;;;;;;;5.58;4.97;;;;;;;18.00;74.73;97762.64;1767809;80;25629;-80
2022/07/02 06:24:03;;;;;;;6.37;5.60;;;;;;;17.99;74.86;97761.02;1763240;80;25946;-80
2022/07/02 06:26:30;;;;;;;5.72;4.90;;;;;;;18.00;74.91;97755.81;1757562;80;25902;-80
2022/07/02 06:28:57;;;;;;;5.85;5.05;;;;;;;18.03;74.97;97756.69;1763672;80;25777;-79
2022/07/02 06:31:23;;;;;;;7.97;5.05;;;;;;;18.09;74.91;97757.59;1761755;80;27369;-79
2022/07/02 06:33:50;;;;;;;4.90;4.45;;;;;;;18.09;74.86;97759.80;1757663;80;25668;-79
2022/07/02 06:36:21;;;;;;;5.22;4.60;;;;;;;18.11;74.84;97763.11;1762500;80;25810;-79
2022/07/02 06:38:45;;;;;;;4.85;4.33;;;;;;;18.11;74.74;97765.84;1743506;80;25739;-79
2022/07/02 06:43:56;;;;;;;4.90;4.50;;;;;;;18.10;74.75;97781.94;1769270;80;27490;-80
2022/07/02 06:46:23;;;;;;;6.37;4.80;;;;;;;18.06;74.85;97792.23;1769526;80;25757;-79
2022/07/02 06:48:50;;;;;;;6.08;5.47;;;;;;;18.04;75.02;97793.84;1774041;79;26644;-83
2022/07/02 06:51:16;;;;;;;5.00;4.60;;;;;;;18.05;75.13;97802.88;1768552;80;26645;-86
2022/07/02 06:53:43;;;;;;;6.15;5.55;;;;;;;18.02;75.01;97801.46;1773876;80;25735;-82
2022/07/02 06:56:09;;;;;;;6.85;6.15;;;;;;;17.96;75.05;97806.03;1779827;80;27249;-83
2022/07/02 06:58:36;;;;;;;7.60;6.10;;;;;;;17.95;75.15;97806.27;1779186;80;25827;-82
2022/07/02 07:01:03;;;;;;;7.35;6.65;;;;;;;17.94;75.19;97802.72;1778719;80;25701;-83
2022/07/02 07:03:29;;;;;;;7.42;6.83;;;;;;;17.94;75.29;97801.35;1773191;80;25870;-84
2022/07/02 07:05:56;;;;;;;9.63;7.78;;;;;;;17.95;75.30;97808.47;1768207;80;25813;-83
2022/07/02 07:08:22;;;;;;;9.18;7.65;;;;;;;17.90;75.37;97807.55;1773104;80;27479;-87
2022/07/02 07:10:49;;;;;;;10.05;7.25;;;;;;;17.88;75.50;97801.50;1772712;80;25710;-84
2022/07/02 07:13:16;;;;;;;9.40;7.60;;;;;;;17.89;75.48;97805.35;1775244;80;25746;-85
2022/07/02 07:15:42;;;;;;;8.45;7.22;;;;;;;17.89;75.37;97812.72;1778196;80;25889;-84
2022/07/02 07:18:09;;;;;;;10.10;8.53;;;;;;;17.84;75.33;97809.92;1770196;79;25690;-83
2022/07/02 07:20:36;;;;;;;12.37;8.88;;;;;;;17.78;75.33;97817.72;1779442;80;27562;-84
2022/07/02 07:23:03;;;;;;;10.90;9.63;;;;;;;17.74;75.47;97819.31;1771500;80;25320;-83
2022/07/02 07:25:30;;;;;;;11.68;10.50;;;;;;;17.72;75.62;97820.92;1770476;79;25793;-84
2022/07/02 07:27:57;;;;;;;11.20;9.95;;;;;;;17.70;75.60;97825.80;1779466;79;25773;-84
2022/07/02 07:30:24;;;;;;;11.53;10.40;;;;;;;17.66;75.67;97834.17;1781964;80;25645;-84
2022/07/02 07:32:50;;;;;;;11.00;9.88;;;;;;;17.58;75.79;97830.45;1770888;80;27433;-84
2022/07/02 07:35:17;;;;;;;10.20;9.20;;;;;;;17.59;76.03;97835.67;1774788;80;25732;-85
2022/07/02 07:37:57;;;;;;;11.35;7.92;;;;;;;17.59;75.92;97839.77;1778193;80;25784;-85
2022/07/02 07:40:12;;;;;;;9.23;8.33;;;;;;;17.55;75.93;97838.59;1767984;80;25856;-84
2022/07/02 07:42:38;;;;;;;9.13;8.00;;;;;;;17.54;76.13;97838.30;1778370;79;25799;-83
2022/07/02 07:45:06;;;;;;;9.00;7.70;;;;;;;17.59;76.08;97847.13;1776053;79;27543;-83
2022/07/02 07:47:32;;;;;;;9.25;7.90;;;;;;;17.55;76.29;97852.24;1778880;79;25653;-83
2022/07/02 07:49:59;;;;;;;8.15;7.37;;;;;;;17.58;76.44;97857.22;1770500;80;25356;-85
2022/07/02 07:52:25;;;;;;;7.45;6.75;;;;;;;17.61;76.12;97850.45;1777520;80;25762;-83
2022/07/02 07:54:52;;;;;;;7.90;6.15;;;;;;;17.65;76.15;97852.98;1769012;80;25637;-84
2022/07/02 07:57:19;;;;;;;6.42;5.83;;;;;;;17.68;76.14;97849.78;1772875;80;27458;-86
2022/07/02 07:59:45;;;;;;;6.40;5.80;;;;;;;17.72;76.25;97856.95;1780591;80;25814;-83
2022/07/02 08:02:12;;;;;;;9.00;6.12;;;;;;;17.74;76.19;97867.09;1776309;80;25784;-85
2022/07/02 08:04:38;;;;;;;6.90;5.58;;;;;;;17.74;76.14;97863.83;1780384;80;25943;-85
2022/07/02 08:07:05;;;;;;;7.40;5.97;;;;;;;17.78;76.09;97870.43;1778671;80;25465;-83
2022/07/02 08:09:32;;;;;;;7.20;6.47;;;;;;;17.82;76.01;97870.23;1771573;80;28198;-84
2022/07/02 08:11:58;;;;;;;6.95;6.00;;;;;;;17.87;75.94;97873.61;1774127;80;25809;-86
2022/07/02 08:14:25;;;;;;;7.97;6.35;;;;;;;17.85;75.85;97870.29;1782672;80;25676;-86
2022/07/02 08:16:52;;;;;;;7.12;6.42;;;;;;;17.87;75.95;97868.14;1778525;79;25684;-86
2022/07/02 08:19:18;;;;;;;6.15;5.47;;;;;;;17.84;75.94;97878.19;1774343;80;25832;-83
2022/07/02 08:21:45;;;;;;;6.87;6.28;;;;;;;17.84;75.75;97876.83;1773420;80;28170;-85
2022/07/02 08:24:12;;;;;;;6.22;5.62;;;;;;;17.89;75.51;97875.53;1768254;80;25729;-86
2022/07/02 08:26:38;;;;;;;6.33;5.83;;;;;;;17.92;75.69;97876.41;1772520;80;25778;-83
2022/07/02 08:29:05;;;;;;;6.08;5.58;;;;;;;17.89;75.46;97889.18;1772121;80;25903;-85
2022/07/02 08:31:31;;;;;;;6.05;5.40;;;;;;;17.87;75.32;97885.33;1779294;80;25729;-83
2022/07/02 08:33:58;;;;;;;7.53;6.20;;;;;;;17.87;75.33;97890.79;1772981;80;27308;-79
2022/07/02 08:36:24;;;;;;;6.75;6.05;;;;;;;17.88;75.22;97887.52;1778185;79;25705;-80
2022/07/02 08:38:51;;;;;;;6.00;5.50;;;;;;;17.90;75.12;97890.30;1757350;80;25865;-81
2022/07/02 08:41:18;;;;;;;6.60;6.00;;;;;;;17.91;75.12;97889.23;1780025;79;26523;-80
2022/07/02 08:43:47;;;;;;;7.20;6.60;;;;;;;17.90;75.06;97888.11;1778309;80;25617;-81
2022/07/02 08:46:15;;;;;;;7.70;6.15;;;;;;;17.89;75.20;97887.81;1775064;80;28279;-79
2022/07/02 08:48:42;;;;;;;7.37;6.42;;;;;;;17.94;75.02;97895.58;1774558;80;25720;-80
2022/07/02 08:51:13;;;;;;;7.25;6.60;;;;;;;17.97;74.81;97896.45;1776242;80;25769;-78
2022/07/02 08:53:42;;;;;;;6.80;6.20;;;;;;;18.02;74.80;97898.97;1779250;80;26517;-80
2022/07/02 08:56:11;;;;;;;6.90;6.20;;;;;;;17.96;74.80;97900.27;1773237;80;25918;-81
2022/07/02 08:58:38;;;;;;;7.22;6.53;;;;;;;18.00;74.87;97906.04;1768829;79;27587;-80
2022/07/02 09:01:09;;;;;;;8.10;7.40;;;;;;;18.05;74.84;97897.94;1768396;80;26095;-80
2022/07/02 09:03:36;;;;;;;7.78;6.97;;;;;;;18.13;74.69;97899.42;1754534;78;25286;-80
2022/07/02 09:06:06;;;;;;;7.37;6.37;;;;;;;18.19;74.45;97902.55;1750875;80;26095;-79
2022/07/02 09:08:34;;;;;;;8.78;6.85;;;;;;;18.20;74.42;97906.41;1749563;80;25695;-82
2022/07/02 09:11:02;;;;;;;8.88;6.97;;;;;;;18.24;74.35;97907.55;1722684;82;27376;-79
2022/07/02 09:13:30;;;;;;;7.40;6.80;;;;;;;18.28;74.33;97901.88;1731233;82;25240;-78
2022/07/02 09:15:57;;;;;;;9.03;7.62;;;;;;;18.28;74.20;97907.34;1728348;82;25731;-80
2022/07/02 09:18:23;;;;;;;8.88;7.90;;;;;;;18.30;73.98;97910.66;1714954;82;25808;-80
2022/07/02 09:20:50;;;;;;;7.80;7.05;;;;;;;18.29;74.07;97908.18;1700093;82;25983;-78
2022/07/02 09:23:21;;;;;;;9.65;7.62;;;;;;;18.31;74.03;97908.23;1732368;81;27437;-79
2022/07/02 09:25:51;;;;;;;8.65;7.85;;;;;;;18.31;74.07;97907.39;1742067;81;25445;-79
2022/07/02 09:28:19;;;;;;;8.50;7.70;;;;;;;18.32;74.19;97905.78;1748336;80;26069;-79
2022/07/02 09:30:45;;;;;;;8.68;7.87;;;;;;;18.33;74.04;97912.08;1734057;81;25844;-79
2022/07/02 09:33:33;;;;;;;7.92;7.22;;;;;;;18.33;73.87;97914.28;1744101;80;25861;-79
2022/07/02 09:36:02;;;;;;;8.85;8.03;;;;;;;18.35;73.80;97913.47;1743573;81;27432;-80
2022/07/02 09:38:29;;;;;;;8.95;8.00;;;;;;;18.43;73.60;97905.94;1736739;81;25664;-80
2022/07/02 09:40:59;;;;;;;8.88;8.03;;;;;;;18.43;73.43;97908.67;1740094;81;25771;-80
2022/07/02 09:43:31;;;;;;;9.03;8.23;;;;;;;18.42;73.42;97908.38;1740515;81;25913;-80
2022/07/02 09:45:59;;;;;;;9.53;8.63;;;;;;;18.45;73.43;97907.89;1754111;80;25374;-79
2022/07/02 09:48:26;;;;;;;10.30;9.25;;;;;;;18.44;73.08;97909.80;1741611;81;27408;-80
2022/07/02 09:50:53;;;;;;;12.53;11.30;;;;;;;18.43;73.15;97909.50;1748073;80;25790;-80
2022/07/02 09:53:20;;;;;;;12.73;11.43;;;;;;;18.34;73.11;97910.47;1738127;81;26580;-79
2022/07/02 09:55:51;;;;;;;15.75;12.85;;;;;;;18.30;73.30;97918.03;1711123;82;25801;-79
2022/07/02 09:58:25;;;;;;;16.82;15.03;;;;;;;18.26;73.30;97913.59;1744643;82;26169;-79
2022/07/02 10:00:53;;;;;;;16.02;13.88;;;;;;;18.22;73.55;97908.36;1740565;81;27405;-79
2022/07/02 10:03:20;;;;;;;19.12;16.75;;;;;;;18.32;73.64;97931.75;1746469;80;25709;-78
2022/07/02 10:05:54;;;;;;;18.77;16.42;;;;;;;18.29;73.55;97929.50;1738446;80;25850;-79
2022/07/02 10:08:22;;;;;;;21.02;18.75;;;;;;;18.33;73.42;97929.31;1734705;81;25757;-79
2022/07/02 10:10:50;;;;;;;21.65;19.35;;;;;;;18.34;73.45;97930.97;1743568;80;25686;-79
2022/07/02 10:13:18;;;;;;;24.15;20.62;;;;;;;18.31;73.25;97930.63;1736081;81;27392;-79
2022/07/02 10:15:58;;;;;;;22.98;20.65;;;;;;;18.23;73.22;97927.74;1709690;82;25751;-79
2022/07/02 10:18:25;;;;;;;23.70;21.20;;;;;;;18.14;73.37;97923.77;1705961;83;25758;-80
2022/07/02 10:21:03;;;;;;;25.68;22.90;;;;;;;18.12;73.70;97928.65;1696811;83;25803;-78
2022/07/02 10:23:30;;;;;;;24.50;21.87;;;;;;;18.07;73.67;97941.41;1706291;84;25960;-80
2022/07/02 10:25:58;;;;;;;23.50;21.00;;;;;;;18.02;73.60;97946.23;1736678;81;27553;-80
2022/07/02 10:28:25;;;;;;;23.98;21.45;;;;;;;17.99;73.58;97946.18;1711574;83;26330;-79
2022/07/02 10:30:54;;;;;;;26.50;21.42;;;;;;;17.95;73.69;97950.50;1705840;84;25931;-78
2022/07/02 10:33:49;;;;;;;24.30;21.80;;;;;;;17.98;73.63;97951.37;1739774;81;26843;-79
2022/07/02 10:36:17;;;;;;;24.85;21.77;;;;;;;17.97;73.56;97955.72;1711940;82;25730;-80
2022/07/02 10:38:46;;;;;;;26.45;22.52;;;;;;;17.92;73.68;97953.70;1740779;80;27560;-78
2022/07/02 10:41:13;;;;;;;24.50;21.93;;;;;;;17.88;73.56;97954.44;1739635;81;25724;-79
2022/07/02 10:43:40;;;;;;;23.73;21.17;;;;;;;17.86;73.70;97963.43;1733352;81;25703;-77
2022/07/02 10:46:10;;;;;;;26.70;22.48;;;;;;;17.80;73.81;97961.13;1740028;81;25845;-79
2022/07/02 10:48:52;;;;;;;24.30;21.37;;;;;;;17.73;74.02;97963.19;1688725;83;25467;-79
2022/07/02 10:51:31;;;;;;;26.02;21.62;;;;;;;17.71;74.21;97963.96;1701184;83;27435;-78
2022/07/02 10:54:02;;;;;;;24.55;21.95;;;;;;;17.72;74.24;97971.08;1705610;83;25368;-78
2022/07/02 10:56:31;;;;;;;25.82;23.02;;;;;;;17.72;74.19;97978.44;1633836;86;25887;-79
2022/07/02 10:58:58;;;;;;;29.63;24.18;;;;;;;17.72;74.23;97974.34;1645224;87;25989;-80
2022/07/02 11:01:25;;;;;;;26.80;23.85;;;;;;;17.72;74.27;97977.08;1633788;86;25784;-79
2022/07/02 11:04:03;;;;;;;27.07;24.23;;;;;;;17.63;74.40;97980.17;1637794;86;28127;-79
2022/07/02 11:06:32;;;;;;;26.35;23.47;;;;;;;17.64;74.66;97987.83;1636660;86;25881;-80
2022/07/02 11:09:03;;;;;;;29.67;24.63;;;;;;;17.66;74.56;97991.68;1637645;86;25740;-79
2022/07/02 11:11:40;;;;;;;30.23;24.77;;;;;;;17.67;74.61;97993.34;1653162;85;25927;-80
2022/07/02 11:14:13;;;;;;;29.87;24.30;;;;;;;17.68;74.66;97987.64;1622239;88;25539;-77
2022/07/02 11:16:47;;;;;;;28.00;24.32;;;;;;;17.69;74.67;97983.02;1626789;87;27642;-80
2022/07/02 11:19:31;;;;;;;28.23;23.92;;;;;;;17.75;74.63;97980.13;1654505;86;26201;-78
2022/07/02 11:22:02;;;;;;;28.23;24.30;;;;;;;17.76;74.59;97988.62;1650345;86;25985;-79
2022/07/02 11:24:31;;;;;;;28.23;23.93;;;;;;;17.83;74.21;97981.13;1653987;86;25771;-79
2022/07/02 11:26:59;;;;;;;29.07;25.37;;;;;;;17.83;74.21;97981.13;1584229;88;25809;-80
2022/07/02 11:29:26;;;;;;;30.17;26.62;;;;;;;17.84;74.38;97981.42;1590693;89;27449;-80
2022/07/02 11:31:58;;;;;;;33.35;26.85;;;;;;;17.82;74.60;97970.44;1630503;87;25796;-79
2022/07/02 11:34:29;;;;;;;29.12;25.80;;;;;;;17.77;74.82;97971.70;1601838;88;26134;-79